sensor_id;sensor_type;location;lat;lon;timestamp;temperature;humidity
65478;SHT31;53678;39.642;22.430;2023-07-22T00:02:24;28.10;71.86
65478;SHT31;53678;39.642;22.430;2023-07-22T00:04:50;28.14;71.70
65478;SHT31;53678;39.642;22.430;2023-07-22T00:07:16;28.19;71.62
65478;SHT31;53678;39.642;22.430;2023-07-22T00:09:42;28.13;71.88
65478;SHT31;53678;39.642;22.430;2023-07-22T00:12:09;28.16;72.06
65478;SHT31;53678;39.642;22.430;2023-07-22T00:14:40;28.16;72.03
65478;SHT31;53678;39.642;22.430;2023-07-22T00:17:06;28.14;72.31
65478;SHT31;53678;39.642;22.430;2023-07-22T00:19:33;28.24;71.99
65478;SHT31;53678;39.642;22.430;2023-07-22T00:21:59;28.08;72.47
65478;SHT31;53678;39.642;22.430;2023-07-22T00:24:25;28.26;72.20
65478;SHT31;53678;39.642;22.430;2023-07-22T00:26:51;28.09;72.79
65478;SHT31;53678;39.642;22.430;2023-07-22T00:29:17;28.02;74.54
65478;SHT31;53678;39.642;22.430;2023-07-22T00:31:43;28.03;75.81
65478;SHT31;53678;39.642;22.430;2023-07-22T00:34:09;28.03;76.46
65478;SHT31;53678;39.642;22.430;2023-07-22T00:36:36;28.01;77.31
65478;SHT31;53678;39.642;22.430;2023-07-22T00:39:03;27.91;77.86
65478;SHT31;53678;39.642;22.430;2023-07-22T00:41:29;27.66;79.06
65478;SHT31;53678;39.642;22.430;2023-07-22T00:43:54;27.55;79.70
65478;SHT31;53678;39.642;22.430;2023-07-22T00:46:20;27.50;80.47
65478;SHT31;53678;39.642;22.430;2023-07-22T00:48:46;27.55;80.89
65478;SHT31;53678;39.642;22.430;2023-07-22T00:51:12;27.54;81.21
65478;SHT31;53678;39.642;22.430;2023-07-22T00:53:38;27.51;80.99
65478;SHT31;53678;39.642;22.430;2023-07-22T00:56:04;27.59;80.41
65478;SHT31;53678;39.642;22.430;2023-07-22T00:58:30;27.59;80.34
65478;SHT31;53678;39.642;22.430;2023-07-22T01:00:56;27.51;80.74
65478;SHT31;53678;39.642;22.430;2023-07-22T01:03:22;27.57;80.19
65478;SHT31;53678;39.642;22.430;2023-07-22T01:05:48;27.64;80.28
65478;SHT31;53678;39.642;22.430;2023-07-22T01:08:16;27.51;80.64
65478;SHT31;53678;39.642;22.430;2023-07-22T01:10:43;27.68;79.87
65478;SHT31;53678;39.642;22.430;2023-07-22T01:13:08;27.65;80.02
65478;SHT31;53678;39.642;22.430;2023-07-22T01:15:35;27.66;79.59
65478;SHT31;53678;39.642;22.430;2023-07-22T01:18:03;27.64;79.36
65478;SHT31;53678;39.642;22.430;2023-07-22T01:20:30;27.65;79.52
65478;SHT31;53678;39.642;22.430;2023-07-22T01:22:56;27.69;79.28
65478;SHT31;53678;39.642;22.430;2023-07-22T01:25:23;27.77;79.18
65478;SHT31;53678;39.642;22.430;2023-07-22T01:27:50;27.66;79.55
65478;SHT31;53678;39.642;22.430;2023-07-22T01:30:16;27.64;79.47
65478;SHT31;53678;39.642;22.430;2023-07-22T01:32:42;27.54;79.58
65478;SHT31;53678;39.642;22.430;2023-07-22T01:35:09;27.68;78.86
65478;SHT31;53678;39.642;22.430;2023-07-22T01:37:35;27.61;79.45
65478;SHT31;53678;39.642;22.430;2023-07-22T01:40:01;27.34;80.49
65478;SHT31;53678;39.642;22.430;2023-07-22T01:42:38;27.37;80.38
65478;SHT31;53678;39.642;22.430;2023-07-22T01:45:05;27.47;80.27
65478;SHT31;53678;39.642;22.430;2023-07-22T01:47:37;27.33;81.04
65478;SHT31;53678;39.642;22.430;2023-07-22T01:50:03;27.31;81.32
65478;SHT31;53678;39.642;22.430;2023-07-22T01:52:29;27.13;81.94
65478;SHT31;53678;39.642;22.430;2023-07-22T01:54:55;27.10;82.09
65478;SHT31;53678;39.642;22.430;2023-07-22T01:57:21;27.07;82.00
65478;SHT31;53678;39.642;22.430;2023-07-22T01:59:47;27.16;81.70
65478;SHT31;53678;39.642;22.430;2023-07-22T02:02:13;27.10;82.05
65478;SHT31;53678;39.642;22.430;2023-07-22T02:04:39;27.24;81.44
65478;SHT31;53678;39.642;22.430;2023-07-22T02:07:05;27.06;81.50
65478;SHT31;53678;39.642;22.430;2023-07-22T02:09:32;27.03;82.02
65478;SHT31;53678;39.642;22.430;2023-07-22T02:11:58;26.95;82.04
65478;SHT31;53678;39.642;22.430;2023-07-22T02:14:24;27.03;81.87
65478;SHT31;53678;39.642;22.430;2023-07-22T02:16:50;27.04;81.51
65478;SHT31;53678;39.642;22.430;2023-07-22T02:19:16;27.00;81.54
65478;SHT31;53678;39.642;22.430;2023-07-22T02:21:42;26.60;82.84
65478;SHT31;53678;39.642;22.430;2023-07-22T02:24:08;26.69;82.62
65478;SHT31;53678;39.642;22.430;2023-07-22T02:26:34;26.83;82.23
65478;SHT31;53678;39.642;22.430;2023-07-22T02:28:59;26.96;81.58
65478;SHT31;53678;39.642;22.430;2023-07-22T02:31:25;26.93;81.36
65478;SHT31;53678;39.642;22.430;2023-07-22T02:33:51;27.04;80.27
65478;SHT31;53678;39.642;22.430;2023-07-22T02:36:17;27.00;80.17
65478;SHT31;53678;39.642;22.430;2023-07-22T02:38:43;26.85;80.26
65478;SHT31;53678;39.642;22.430;2023-07-22T02:41:12;26.80;80.31
65478;SHT31;53678;39.642;22.430;2023-07-22T02:43:38;26.80;80.29
65478;SHT31;53678;39.642;22.430;2023-07-22T02:46:06;26.76;80.30
65478;SHT31;53678;39.642;22.430;2023-07-22T02:48:33;26.75;80.15
65478;SHT31;53678;39.642;22.430;2023-07-22T02:51:04;26.80;80.03
65478;SHT31;53678;39.642;22.430;2023-07-22T02:53:31;26.82;79.75
65478;SHT31;53678;39.642;22.430;2023-07-22T02:55:57;27.03;79.08
65478;SHT31;53678;39.642;22.430;2023-07-22T02:58:23;27.03;78.58
65478;SHT31;53678;39.642;22.430;2023-07-22T03:00:48;27.06;78.12
65478;SHT31;53678;39.642;22.430;2023-07-22T03:03:14;26.97;78.30
65478;SHT31;53678;39.642;22.430;2023-07-22T03:05:40;26.95;78.36
65478;SHT31;53678;39.642;22.430;2023-07-22T03:08:05;26.93;78.27
65478;SHT31;53678;39.642;22.430;2023-07-22T03:10:33;27.00;77.77
65478;SHT31;53678;39.642;22.430;2023-07-22T03:12:58;26.80;78.66
65478;SHT31;53678;39.642;22.430;2023-07-22T03:15:25;26.80;78.34
65478;SHT31;53678;39.642;22.430;2023-07-22T03:17:52;26.79;78.11
65478;SHT31;53678;39.642;22.430;2023-07-22T03:20:18;26.62;78.52
65478;SHT31;53678;39.642;22.430;2023-07-22T03:22:45;26.71;78.24
65478;SHT31;53678;39.642;22.430;2023-07-22T03:25:12;26.68;77.67
65478;SHT31;53678;39.642;22.430;2023-07-22T03:27:38;26.58;77.69
65478;SHT31;53678;39.642;22.430;2023-07-22T03:30:06;26.76;77.34
65478;SHT31;53678;39.642;22.430;2023-07-22T03:32:36;26.49;77.50
65478;SHT31;53678;39.642;22.430;2023-07-22T03:35:02;26.51;77.24
65478;SHT31;53678;39.642;22.430;2023-07-22T03:37:29;26.59;76.84
65478;SHT31;53678;39.642;22.430;2023-07-22T03:39:55;26.78;76.65
65478;SHT31;53678;39.642;22.430;2023-07-22T03:42:21;27.04;75.70
65478;SHT31;53678;39.642;22.430;2023-07-22T03:44:46;27.24;75.17
65478;SHT31;53678;39.642;22.430;2023-07-22T03:47:12;27.47;74.97
65478;SHT31;53678;39.642;22.430;2023-07-22T03:49:38;27.66;74.60
65478;SHT31;53678;39.642;22.430;2023-07-22T03:52:04;27.72;74.48
65478;SHT31;53678;39.642;22.430;2023-07-22T03:54:30;27.35;75.63
65478;SHT31;53678;39.642;22.430;2023-07-22T03:56:56;27.54;75.77
65478;SHT31;53678;39.642;22.430;2023-07-22T03:59:21;28.19;73.51
65478;SHT31;53678;39.642;22.430;2023-07-22T04:01:47;28.56;72.51
65478;SHT31;53678;39.642;22.430;2023-07-22T04:04:13;28.19;73.84
65478;SHT31;53678;39.642;22.430;2023-07-22T04:06:39;28.70;72.91
65478;SHT31;53678;39.642;22.430;2023-07-22T04:09:05;29.47;70.36
65478;SHT31;53678;39.642;22.430;2023-07-22T04:11:30;29.94;69.17
65478;SHT31;53678;39.642;22.430;2023-07-22T04:13:56;29.70;69.52
65478;SHT31;53678;39.642;22.430;2023-07-22T04:16:23;29.12;71.19
65478;SHT31;53678;39.642;22.430;2023-07-22T04:18:49;28.57;72.54
65478;SHT31;53678;39.642;22.430;2023-07-22T04:21:14;28.86;71.71
65478;SHT31;53678;39.642;22.430;2023-07-22T04:23:40;28.63;72.79
65478;SHT31;53678;39.642;22.430;2023-07-22T04:26:06;28.94;71.64
65478;SHT31;53678;39.642;22.430;2023-07-22T04:28:34;29.02;71.83
65478;SHT31;53678;39.642;22.430;2023-07-22T04:31:00;30.46;67.71
65478;SHT31;53678;39.642;22.430;2023-07-22T04:33:26;30.83;67.01
65478;SHT31;53678;39.642;22.430;2023-07-22T04:35:55;30.82;66.51
65478;SHT31;53678;39.642;22.430;2023-07-22T04:38:21;31.71;65.11
65478;SHT31;53678;39.642;22.430;2023-07-22T04:40:47;32.49;62.45
65478;SHT31;53678;39.642;22.430;2023-07-22T04:43:13;32.55;62.49
65478;SHT31;53678;39.642;22.430;2023-07-22T04:45:38;33.32;60.03
65478;SHT31;53678;39.642;22.430;2023-07-22T04:48:07;32.73;61.64
65478;SHT31;53678;39.642;22.430;2023-07-22T04:50:33;34.13;58.32
65478;SHT31;53678;39.642;22.430;2023-07-22T04:52:59;34.84;56.49
65478;SHT31;53678;39.642;22.430;2023-07-22T04:55:25;34.00;58.17
65478;SHT31;53678;39.642;22.430;2023-07-22T04:57:51;34.43;57.69
65478;SHT31;53678;39.642;22.430;2023-07-22T05:00:17;34.96;56.14
65478;SHT31;53678;39.642;22.430;2023-07-22T05:02:45;35.03;56.37
65478;SHT31;53678;39.642;22.430;2023-07-22T05:05:18;35.13;55.77
65478;SHT31;53678;39.642;22.430;2023-07-22T05:07:44;35.47;54.57
65478;SHT31;53678;39.642;22.430;2023-07-22T05:10:11;34.11;56.96
65478;SHT31;53678;39.642;22.430;2023-07-22T05:12:41;34.69;56.51
65478;SHT31;53678;39.642;22.430;2023-07-22T05:15:07;35.00;55.45
65478;SHT31;53678;39.642;22.430;2023-07-22T05:17:33;35.42;55.20
65478;SHT31;53678;39.642;22.430;2023-07-22T05:19:59;33.66;57.20
65478;SHT31;53678;39.642;22.430;2023-07-22T05:22:24;34.41;56.20
65478;SHT31;53678;39.642;22.430;2023-07-22T05:24:50;34.79;54.52
65478;SHT31;53678;39.642;22.430;2023-07-22T05:27:17;35.42;52.92
65478;SHT31;53678;39.642;22.430;2023-07-22T05:29:43;35.57;52.96
65478;SHT31;53678;39.642;22.430;2023-07-22T05:32:09;36.12;52.41
65478;SHT31;53678;39.642;22.430;2023-07-22T05:34:35;33.86;55.74
65478;SHT31;53678;39.642;22.430;2023-07-22T05:37:01;32.41;58.84
65478;SHT31;53678;39.642;22.430;2023-07-22T05:39:26;32.33;58.44
65478;SHT31;53678;39.642;22.430;2023-07-22T05:41:52;32.41;59.06
65478;SHT31;53678;39.642;22.430;2023-07-22T05:44:18;33.05;57.54
65478;SHT31;53678;39.642;22.430;2023-07-22T05:46:45;32.49;58.81
65478;SHT31;53678;39.642;22.430;2023-07-22T05:49:11;32.46;58.41
65478;SHT31;53678;39.642;22.430;2023-07-22T05:51:37;32.66;58.02
65478;SHT31;53678;39.642;22.430;2023-07-22T05:54:04;32.80;57.70
65478;SHT31;53678;39.642;22.430;2023-07-22T05:56:30;33.11;57.01
65478;SHT31;53678;39.642;22.430;2023-07-22T05:58:56;32.01;59.61
65478;SHT31;53678;39.642;22.430;2023-07-22T06:01:23;32.66;57.80
65478;SHT31;53678;39.642;22.430;2023-07-22T06:03:50;32.66;57.52
65478;SHT31;53678;39.642;22.430;2023-07-22T06:06:16;33.14;57.05
65478;SHT31;53678;39.642;22.430;2023-07-22T06:08:41;33.45;56.27
65478;SHT31;53678;39.642;22.430;2023-07-22T06:11:07;33.46;56.03
65478;SHT31;53678;39.642;22.430;2023-07-22T06:13:33;33.45;55.27
65478;SHT31;53678;39.642;22.430;2023-07-22T06:15:59;33.85;55.02
65478;SHT31;53678;39.642;22.430;2023-07-22T06:18:25;34.14;53.78
65478;SHT31;53678;39.642;22.430;2023-07-22T06:20:50;34.27;53.65
65478;SHT31;53678;39.642;22.430;2023-07-22T06:23:16;34.17;53.78
65478;SHT31;53678;39.642;22.430;2023-07-22T06:25:43;33.73;54.78
65478;SHT31;53678;39.642;22.430;2023-07-22T06:28:08;34.20;52.77
65478;SHT31;53678;39.642;22.430;2023-07-22T06:30:34;34.28;52.59
65478;SHT31;53678;39.642;22.430;2023-07-22T06:33:00;34.40;52.91
65478;SHT31;53678;39.642;22.430;2023-07-22T06:35:26;34.43;52.51
65478;SHT31;53678;39.642;22.430;2023-07-22T06:37:51;34.69;51.83
65478;SHT31;53678;39.642;22.430;2023-07-22T06:40:17;34.96;51.44
65478;SHT31;53678;39.642;22.430;2023-07-22T06:42:43;35.00;51.21
65478;SHT31;53678;39.642;22.430;2023-07-22T06:45:09;35.20;51.18
65478;SHT31;53678;39.642;22.430;2023-07-22T06:47:35;35.33;50.69
65478;SHT31;53678;39.642;22.430;2023-07-22T06:50:02;35.32;50.05
65478;SHT31;53678;39.642;22.430;2023-07-22T06:52:30;34.69;51.14
65478;SHT31;53678;39.642;22.430;2023-07-22T06:54:56;34.50;50.74
65478;SHT31;53678;39.642;22.430;2023-07-22T06:57:22;34.72;50.02
65478;SHT31;53678;39.642;22.430;2023-07-22T06:59:48;34.64;49.98
65478;SHT31;53678;39.642;22.430;2023-07-22T07:02:16;35.13;48.36
65478;SHT31;53678;39.642;22.430;2023-07-22T07:04:42;35.44;47.81
65478;SHT31;53678;39.642;22.430;2023-07-22T07:07:07;35.84;48.32
65478;SHT31;53678;39.642;22.430;2023-07-22T07:09:35;35.95;48.13
65478;SHT31;53678;39.642;22.430;2023-07-22T07:12:00;35.60;48.96
65478;SHT31;53678;39.642;22.430;2023-07-22T07:14:26;35.44;49.40
65478;SHT31;53678;39.642;22.430;2023-07-22T07:16:52;36.08;48.32
65478;SHT31;53678;39.642;22.430;2023-07-22T07:19:17;36.28;47.57
65478;SHT31;53678;39.642;22.430;2023-07-22T07:21:43;36.72;46.30
65478;SHT31;53678;39.642;22.430;2023-07-22T07:24:09;36.87;45.88
65478;SHT31;53678;39.642;22.430;2023-07-22T07:26:35;36.93;45.05
65478;SHT31;53678;39.642;22.430;2023-07-22T07:29:00;36.57;45.99
65478;SHT31;53678;39.642;22.430;2023-07-22T07:31:26;36.72;45.98
65478;SHT31;53678;39.642;22.430;2023-07-22T07:33:53;36.69;45.85
65478;SHT31;53678;39.642;22.430;2023-07-22T07:36:18;36.90;45.28
65478;SHT31;53678;39.642;22.430;2023-07-22T07:38:44;37.21;45.06
65478;SHT31;53678;39.642;22.430;2023-07-22T07:41:10;37.26;44.89
65478;SHT31;53678;39.642;22.430;2023-07-22T07:43:40;37.68;44.56
65478;SHT31;53678;39.642;22.430;2023-07-22T07:46:23;37.51;45.15
65478;SHT31;53678;39.642;22.430;2023-07-22T07:48:51;37.31;44.94
65478;SHT31;53678;39.642;22.430;2023-07-22T07:51:18;37.45;44.86
65478;SHT31;53678;39.642;22.430;2023-07-22T07:53:45;37.79;44.45
65478;SHT31;53678;39.642;22.430;2023-07-22T07:56:13;37.88;43.74
65478;SHT31;53678;39.642;22.430;2023-07-22T07:58:39;38.11;43.01
65478;SHT31;53678;39.642;22.430;2023-07-22T08:01:05;38.29;42.89
65478;SHT31;53678;39.642;22.430;2023-07-22T08:03:31;37.81;43.61
65478;SHT31;53678;39.642;22.430;2023-07-22T08:05:57;37.84;43.18
65478;SHT31;53678;39.642;22.430;2023-07-22T08:08:23;37.57;43.57
65478;SHT31;53678;39.642;22.430;2023-07-22T08:11:02;37.34;44.03
65478;SHT31;53678;39.642;22.430;2023-07-22T08:13:29;36.91;44.62
65478;SHT31;53678;39.642;22.430;2023-07-22T08:15:57;37.38;43.81
65478;SHT31;53678;39.642;22.430;2023-07-22T08:18:23;37.33;44.10
65478;SHT31;53678;39.642;22.430;2023-07-22T08:20:51;37.42;44.14
65478;SHT31;53678;39.642;22.430;2023-07-22T08:23:18;37.71;43.76
65478;SHT31;53678;39.642;22.430;2023-07-22T08:25:43;37.20;44.26
65478;SHT31;53678;39.642;22.430;2023-07-22T08:28:09;36.79;44.58
65478;SHT31;53678;39.642;22.430;2023-07-22T08:30:35;37.11;43.81
65478;SHT31;53678;39.642;22.430;2023-07-22T08:33:01;36.76;45.06
65478;SHT31;53678;39.642;22.430;2023-07-22T08:35:26;37.33;44.38
65478;SHT31;53678;39.642;22.430;2023-07-22T08:37:52;37.57;43.97
65478;SHT31;53678;39.642;22.430;2023-07-22T08:40:20;37.37;44.32
65478;SHT31;53678;39.642;22.430;2023-07-22T08:42:46;37.34;44.69
65478;SHT31;53678;39.642;22.430;2023-07-22T08:45:14;37.33;44.49
65478;SHT31;53678;39.642;22.430;2023-07-22T08:47:45;37.38;44.66
65478;SHT31;53678;39.642;22.430;2023-07-22T08:50:14;37.88;43.84
65478;SHT31;53678;39.642;22.430;2023-07-22T08:52:41;37.61;41.89
65478;SHT31;53678;39.642;22.430;2023-07-22T08:55:08;37.49;42.42
65478;SHT31;53678;39.642;22.430;2023-07-22T08:57:36;37.88;42.02
65478;SHT31;53678;39.642;22.430;2023-07-22T09:00:04;37.79;42.30
65478;SHT31;53678;39.642;22.430;2023-07-22T09:02:33;37.86;41.77
65478;SHT31;53678;39.642;22.430;2023-07-22T09:04:59;37.53;42.32
65478;SHT31;53678;39.642;22.430;2023-07-22T09:07:25;37.44;42.16
65478;SHT31;53678;39.642;22.430;2023-07-22T09:09:52;37.51;41.93
65478;SHT31;53678;39.642;22.430;2023-07-22T09:12:20;37.17;42.83
65478;SHT31;53678;39.642;22.430;2023-07-22T09:14:46;37.26;42.04
65478;SHT31;53678;39.642;22.430;2023-07-22T09:17:13;36.84;42.62
65478;SHT31;53678;39.642;22.430;2023-07-22T09:19:39;37.45;42.49
65478;SHT31;53678;39.642;22.430;2023-07-22T09:22:05;37.82;42.00
65478;SHT31;53678;39.642;22.430;2023-07-22T09:24:31;37.82;41.71
65478;SHT31;53678;39.642;22.430;2023-07-22T09:26:58;37.79;42.10
65478;SHT31;53678;39.642;22.430;2023-07-22T09:29:34;37.93;41.55
65478;SHT31;53678;39.642;22.430;2023-07-22T09:32:00;38.20;40.99
65478;SHT31;53678;39.642;22.430;2023-07-22T09:34:27;38.47;40.84
65478;SHT31;53678;39.642;22.430;2023-07-22T09:36:54;38.59;41.38
65478;SHT31;53678;39.642;22.430;2023-07-22T09:39:21;38.82;40.65
65478;SHT31;53678;39.642;22.430;2023-07-22T09:41:47;38.98;40.06
65478;SHT31;53678;39.642;22.430;2023-07-22T09:44:13;39.11;40.20
65478;SHT31;53678;39.642;22.430;2023-07-22T09:46:39;39.19;39.91
65478;SHT31;53678;39.642;22.430;2023-07-22T09:49:07;39.26;39.95
65478;SHT31;53678;39.642;22.430;2023-07-22T09:51:40;38.98;39.92
65478;SHT31;53678;39.642;22.430;2023-07-22T09:54:06;38.78;40.15
65478;SHT31;53678;39.642;22.430;2023-07-22T09:56:44;38.49;40.32
65478;SHT31;53678;39.642;22.430;2023-07-22T09:59:10;38.61;40.49
65478;SHT31;53678;39.642;22.430;2023-07-22T10:01:38;38.30;40.29
65478;SHT31;53678;39.642;22.430;2023-07-22T10:04:05;38.43;40.52
65478;SHT31;53678;39.642;22.430;2023-07-22T10:06:32;37.95;41.11
65478;SHT31;53678;39.642;22.430;2023-07-22T10:09:03;38.59;40.82
65478;SHT31;53678;39.642;22.430;2023-07-22T10:11:34;38.16;40.72
65478;SHT31;53678;39.642;22.430;2023-07-22T10:14:03;38.26;41.03
65478;SHT31;53678;39.642;22.430;2023-07-22T10:16:29;38.32;41.20
65478;SHT31;53678;39.642;22.430;2023-07-22T10:18:57;38.67;40.88
65478;SHT31;53678;39.642;22.430;2023-07-22T10:21:24;39.25;39.99
65478;SHT31;53678;39.642;22.430;2023-07-22T10:23:51;39.41;39.27
65478;SHT31;53678;39.642;22.430;2023-07-22T10:26:19;39.72;39.23
65478;SHT31;53678;39.642;22.430;2023-07-22T10:28:46;39.89;38.63
65478;SHT31;53678;39.642;22.430;2023-07-22T10:31:13;40.08;38.49
65478;SHT31;53678;39.642;22.430;2023-07-22T10:33:39;39.92;38.02
65478;SHT31;53678;39.642;22.430;2023-07-22T10:36:12;39.76;38.49
65478;SHT31;53678;39.642;22.430;2023-07-22T10:38:38;39.76;37.86
65478;SHT31;53678;39.642;22.430;2023-07-22T10:41:14;39.79;37.98
65478;SHT31;53678;39.642;22.430;2023-07-22T10:43:55;39.90;37.93
65478;SHT31;53678;39.642;22.430;2023-07-22T10:46:32;40.04;37.14
65478;SHT31;53678;39.642;22.430;2023-07-22T10:49:17;40.26;36.92
65478;SHT31;53678;39.642;22.430;2023-07-22T10:51:50;40.44;36.52
65478;SHT31;53678;39.642;22.430;2023-07-22T10:54:32;40.24;36.68
65478;SHT31;53678;39.642;22.430;2023-07-22T10:57:28;40.10;36.09
65478;SHT31;53678;39.642;22.430;2023-07-22T10:59:55;39.82;36.78
65478;SHT31;53678;39.642;22.430;2023-07-22T11:02:28;40.11;36.85
65478;SHT31;53678;39.642;22.430;2023-07-22T11:04:58;40.26;36.18
65478;SHT31;53678;39.642;22.430;2023-07-22T11:07:42;40.40;36.92
65478;SHT31;53678;39.642;22.430;2023-07-22T11:10:18;40.35;36.71
65478;SHT31;53678;39.642;22.430;2023-07-22T11:12:44;40.30;35.17
65478;SHT31;53678;39.642;22.430;2023-07-22T11:15:11;40.34;35.57
65478;SHT31;53678;39.642;22.430;2023-07-22T11:17:38;40.34;35.45
65478;SHT31;53678;39.642;22.430;2023-07-22T11:20:04;40.34;36.61
65478;SHT31;53678;39.642;22.430;2023-07-22T11:22:30;40.56;36.43
65478;SHT31;53678;39.642;22.430;2023-07-22T11:24:56;40.69;35.41
65478;SHT31;53678;39.642;22.430;2023-07-22T11:27:25;40.82;35.65
65478;SHT31;53678;39.642;22.430;2023-07-22T11:29:51;40.68;35.78
65478;SHT31;53678;39.642;22.430;2023-07-22T11:32:18;40.47;34.44
65478;SHT31;53678;39.642;22.430;2023-07-22T11:34:47;40.52;34.16
65478;SHT31;53678;39.642;22.430;2023-07-22T11:37:13;40.66;33.55
65478;SHT31;53678;39.642;22.430;2023-07-22T11:39:40;40.56;33.83
65478;SHT31;53678;39.642;22.430;2023-07-22T11:42:08;40.62;34.03
65478;SHT31;53678;39.642;22.430;2023-07-22T11:44:34;40.74;33.23
65478;SHT31;53678;39.642;22.430;2023-07-22T11:47:06;40.35;33.05
65478;SHT31;53678;39.642;22.430;2023-07-22T11:49:39;40.64;33.33
65478;SHT31;53678;39.642;22.430;2023-07-22T11:52:06;41.00;32.39
65478;SHT31;53678;39.642;22.430;2023-07-22T11:54:39;41.05;32.22
65478;SHT31;53678;39.642;22.430;2023-07-22T11:57:20;40.99;32.77
65478;SHT31;53678;39.642;22.430;2023-07-22T11:59:53;41.12;32.25
65478;SHT31;53678;39.642;22.430;2023-07-22T12:02:23;41.44;31.07
65478;SHT31;53678;39.642;22.430;2023-07-22T12:04:57;41.39;30.43
65478;SHT31;53678;39.642;22.430;2023-07-22T12:07:30;41.44;29.61
65478;SHT31;53678;39.642;22.430;2023-07-22T12:09:58;41.54;29.21
65478;SHT31;53678;39.642;22.430;2023-07-22T12:12:44;41.73;30.11
65478;SHT31;53678;39.642;22.430;2023-07-22T12:15:18;41.74;29.96
65478;SHT31;53678;39.642;22.430;2023-07-22T12:17:49;41.78;29.49
65478;SHT31;53678;39.642;22.430;2023-07-22T12:20:16;41.85;29.39
65478;SHT31;53678;39.642;22.430;2023-07-22T12:22:42;41.67;29.45
65478;SHT31;53678;39.642;22.430;2023-07-22T12:25:08;41.73;29.24
65478;SHT31;53678;39.642;22.430;2023-07-22T12:27:35;41.84;28.87
65478;SHT31;53678;39.642;22.430;2023-07-22T12:30:01;41.77;29.00
65478;SHT31;53678;39.642;22.430;2023-07-22T12:32:28;41.71;28.66
65478;SHT31;53678;39.642;22.430;2023-07-22T12:34:54;41.67;28.47
65478;SHT31;53678;39.642;22.430;2023-07-22T12:37:19;41.61;29.15
65478;SHT31;53678;39.642;22.430;2023-07-22T12:39:45;41.90;28.95
65478;SHT31;53678;39.642;22.430;2023-07-22T12:42:11;42.15;28.81
65478;SHT31;53678;39.642;22.430;2023-07-22T12:44:37;42.39;27.59
65478;SHT31;53678;39.642;22.430;2023-07-22T12:47:02;42.50;27.61
65478;SHT31;53678;39.642;22.430;2023-07-22T12:49:28;42.49;27.31
65478;SHT31;53678;39.642;22.430;2023-07-22T12:51:54;42.49;27.50
65478;SHT31;53678;39.642;22.430;2023-07-22T12:54:20;42.66;27.30
65478;SHT31;53678;39.642;22.430;2023-07-22T12:56:45;42.40;27.08
65478;SHT31;53678;39.642;22.430;2023-07-22T12:59:11;42.40;27.40
65478;SHT31;53678;39.642;22.430;2023-07-22T13:01:37;42.49;27.29
65478;SHT31;53678;39.642;22.430;2023-07-22T13:04:04;42.63;27.02
65478;SHT31;53678;39.642;22.430;2023-07-22T13:06:30;42.60;27.14
65478;SHT31;53678;39.642;22.430;2023-07-22T13:08:56;42.57;27.00
65478;SHT31;53678;39.642;22.430;2023-07-22T13:11:23;42.70;26.69
65478;SHT31;53678;39.642;22.430;2023-07-22T13:13:48;42.62;26.95
65478;SHT31;53678;39.642;22.430;2023-07-22T13:16:14;42.66;26.86
65478;SHT31;53678;39.642;22.430;2023-07-22T13:18:41;42.74;26.98
65478;SHT31;53678;39.642;22.430;2023-07-22T13:21:07;42.70;26.96
65478;SHT31;53678;39.642;22.430;2023-07-22T13:23:33;42.74;27.17
65478;SHT31;53678;39.642;22.430;2023-07-22T13:25:58;42.81;26.76
65478;SHT31;53678;39.642;22.430;2023-07-22T13:28:24;42.77;26.39
65478;SHT31;53678;39.642;22.430;2023-07-22T13:30:50;42.78;26.44
65478;SHT31;53678;39.642;22.430;2023-07-22T13:33:15;42.70;26.57
65478;SHT31;53678;39.642;22.430;2023-07-22T13:35:42;42.78;26.55
65478;SHT31;53678;39.642;22.430;2023-07-22T13:38:08;42.80;26.54
65478;SHT31;53678;39.642;22.430;2023-07-22T13:40:34;42.87;26.83
65478;SHT31;53678;39.642;22.430;2023-07-22T13:43:00;42.59;26.68
65478;SHT31;53678;39.642;22.430;2023-07-22T13:45:26;42.50;27.05
65478;SHT31;53678;39.642;22.430;2023-07-22T13:47:52;42.71;27.14
65478;SHT31;53678;39.642;22.430;2023-07-22T13:50:18;42.83;27.00
65478;SHT31;53678;39.642;22.430;2023-07-22T13:52:44;42.84;27.19
65478;SHT31;53678;39.642;22.430;2023-07-22T13:55:10;42.80;26.89
65478;SHT31;53678;39.642;22.430;2023-07-22T13:57:36;42.90;26.75
65478;SHT31;53678;39.642;22.430;2023-07-22T14:00:02;42.81;27.03
65478;SHT31;53678;39.642;22.430;2023-07-22T14:02:37;42.83;27.26
65478;SHT31;53678;39.642;22.430;2023-07-22T14:05:04;42.97;27.33
65478;SHT31;53678;39.642;22.430;2023-07-22T14:07:30;43.00;27.11
65478;SHT31;53678;39.642;22.430;2023-07-22T14:09:55;43.08;26.88
65478;SHT31;53678;39.642;22.430;2023-07-22T14:12:21;43.14;27.16
65478;SHT31;53678;39.642;22.430;2023-07-22T14:14:47;43.11;27.43
65478;SHT31;53678;39.642;22.430;2023-07-22T14:17:12;43.10;27.69
65478;SHT31;53678;39.642;22.430;2023-07-22T14:19:38;43.10;27.77
65478;SHT31;53678;39.642;22.430;2023-07-22T14:22:04;43.10;27.91
65478;SHT31;53678;39.642;22.430;2023-07-22T14:24:30;43.06;27.83
65478;SHT31;53678;39.642;22.430;2023-07-22T14:26:56;43.00;27.87
65478;SHT31;53678;39.642;22.430;2023-07-22T14:29:22;42.90;27.93
65478;SHT31;53678;39.642;22.430;2023-07-22T14:31:47;42.91;27.66
65478;SHT31;53678;39.642;22.430;2023-07-22T14:34:13;42.88;27.60
65478;SHT31;53678;39.642;22.430;2023-07-22T14:36:39;42.98;27.27
65478;SHT31;53678;39.642;22.430;2023-07-22T14:39:05;42.93;27.25
65478;SHT31;53678;39.642;22.430;2023-07-22T14:41:31;42.91;27.16
65478;SHT31;53678;39.642;22.430;2023-07-22T14:43:56;42.81;27.30
65478;SHT31;53678;39.642;22.430;2023-07-22T14:46:22;42.84;27.37
65478;SHT31;53678;39.642;22.430;2023-07-22T14:48:48;42.74;27.53
65478;SHT31;53678;39.642;22.430;2023-07-22T14:51:14;42.64;27.72
65478;SHT31;53678;39.642;22.430;2023-07-22T14:53:40;42.73;27.93
65478;SHT31;53678;39.642;22.430;2023-07-22T14:56:06;42.66;28.00
65478;SHT31;53678;39.642;22.430;2023-07-22T14:58:32;42.60;27.73
65478;SHT31;53678;39.642;22.430;2023-07-22T15:01:00;42.60;27.84
65478;SHT31;53678;39.642;22.430;2023-07-22T15:03:26;42.50;28.06
65478;SHT31;53678;39.642;22.430;2023-07-22T15:05:52;42.51;28.44
65478;SHT31;53678;39.642;22.430;2023-07-22T15:08:18;42.63;28.61
65478;SHT31;53678;39.642;22.430;2023-07-22T15:10:43;42.66;28.72
65478;SHT31;53678;39.642;22.430;2023-07-22T15:13:09;42.64;28.94
65478;SHT31;53678;39.642;22.430;2023-07-22T15:15:35;42.49;29.31